ADDS METAR Data INFO
IDs: Format: Raw Decoded Include TAF

Data at: 1334 UTC 23 Jun 2018

KSLK 231251Z AUTO 22003KT 10SM FEW080 OVC110 15/11 A2994 RMK AO2 RAB06E32 SLP134 P0000 T01500111
KSLK 231151Z AUTO 00000KT 10SM FEW090 OVC110 14/13 A2994 RMK AO2 RAE20 SLP135 P0000 60001 70001 T01440133 10144 20106 56006
KSLK 231051Z AUTO 00000KT 10SM -RA BKN110 13/13 A2994 RMK AO2 RAB0955 SLP134 P0001 T01280128
KSLK 230951Z AUTO 00000KT 10SM FEW060 BKN085 OVC110 12/11 A2996 RMK AO2 SLP139 T01170111
KSLK 230851Z AUTO 00000KT 10SM BKN120 12/11 A2996 RMK AO2 SLP140 T01170111 55007
KSLK 230751Z AUTO 00000KT 10SM SCT120 11/11 A2995 RMK AO2 SLP138 T01110106
KSLK 230651Z AUTO 00000KT 10SM CLR 11/11 A2996 RMK AO2 SLP141 T01110106
KSLK 230551Z AUTO 00000KT 10SM CLR 11/10 A2998 RMK AO2 SLP149 T01060100 10200 20106 58002
KSLK 230451Z AUTO 00000KT 10SM CLR 11/10 A2999 RMK AO2 SLP151 T01110100 402501006
KSLK 230351Z AUTO 04003KT 10SM CLR 11/11 A2999 RMK AO2 SLP153 T01110106
KSLK 230251Z AUTO 00000KT 10SM CLR 12/11 A2999 RMK AO2 SLP153 T01170111 50005
KSLK 230151Z AUTO 00000KT 10SM CLR 14/12 A2999 RMK AO2 SLP154 T01390117
KSLK 230051Z AUTO 04003KT 10SM CLR 17/10 A2998 RMK AO2 SLP148 T01720100
KSLK 222351Z AUTO 03004KT 10SM CLR 20/10 A2997 RMK AO2 SLP146 T02000100 10250 20194 55002
KSLK 222251Z AUTO 23005KT 10SM CLR 23/04 A2997 RMK AO2 SLP146 T02330044
KSLK 222151Z AUTO 22007KT 10SM CLR 24/05 A2997 RMK AO2 SLP150 T02390050
KSLK 222051Z AUTO 00000KT 10SM CLR 24/02 A2998 RMK AO2 SLP153 T02440017 56013
KSLK 221951Z AUTO VRB06KT 10SM CLR 25/02 A2999 RMK AO2 SLP158 T02500022
KSLK 221851Z AUTO VRB03KT 10SM CLR 23/03 A3000 RMK AO2 SLP160 T02330033
KSLK 221751Z AUTO 22008KT 10SM CLR 23/05 A3002 RMK AO2 SLP167 T02330050 10233 20117 58007
KSLK 221651Z AUTO VRB04KT 10SM CLR 22/04 A3003 RMK AO2 SLP170 T02220044
KSLK 221551Z AUTO VRB03KT 10SM CLR 21/03 A3003 RMK AO2 SLP171 T02060028
KSLK 221451Z AUTO 14004KT 10SM CLR 19/04 A3004 RMK AO2 SLP174 T01940039 58000
KSLK 221351Z AUTO 21004KT 10SM CLR 17/05 A3005 RMK AO2 SLP177 T01720050
KSLK 221251Z AUTO VRB04KT 10SM CLR 16/05 A3005 RMK AO2 SLP175 T01560050
KSLK 221151Z AUTO 00000KT 10SM CLR 12/07 A3004 RMK AO2 SLP173 T01170072 10117 21006 51009
KSLK 221051Z AUTO 00000KT 10SM CLR 07/06 A3004 RMK AO2 SLP174 T00670056
KSLK 220951Z AUTO 00000KT 10SM CLR 01/01 A3003 RMK AO2 SLP175 T00060006
KSLK 220851Z AUTO 00000KT 10SM CLR 01/01 A3001 RMK AO2 SLP169 T00060006 53005
KSLK 220751Z AUTO 00000KT 10SM CLR 01/01 A2999 RMK AO2 SLP161 T00060006
KSLK 220651Z AUTO 00000KT 10SM CLR 01/01 A2999 RMK AO2 SLP159 T00110011
KSLK 220551Z AUTO 00000KT 10SM CLR 02/02 A3000 RMK AO2 SLP162 T00170017 10156 20017 50001
KSLK 220451Z AUTO 00000KT 10SM CLR 02/02 A3001 RMK AO2 SLP165 T00220022 402000022
KSLK 220351Z AUTO 00000KT 10SM CLR 03/03 A3000 RMK AO2 SLP162 T00330033
KSLK 220251Z AUTO 00000KT 10SM CLR 05/05 A2999 RMK AO2 SLP160 T00500050 53020
KSLK 220151Z AUTO 04003KT 10SM CLR 07/06 A2997 RMK AO2 SLP153 T00670061